createdAt,value
2022-09-23T00:01:34.894Z,10.24
2022-09-23T00:04:03.529Z,10.23
2022-09-23T00:06:31.897Z,10.21
2022-09-23T00:09:00.311Z,10.19
2022-09-23T00:11:28.853Z,10.17
2022-09-23T00:13:59.469Z,10.17
2022-09-23T00:16:34.162Z,10.15
2022-09-23T00:19:04.430Z,10.16
2022-09-23T00:21:33.026Z,10.16
2022-09-23T00:24:02.799Z,10.15
2022-09-23T00:26:31.246Z,10.15
2022-09-23T00:28:59.539Z,10.14
2022-09-23T00:31:27.988Z,10.14
2022-09-23T00:33:58.836Z,10.13
2022-09-23T00:36:29.255Z,10.11
2022-09-23T00:38:58.618Z,10.11
2022-09-23T00:41:27.490Z,10.10
2022-09-23T00:43:58.551Z,10.11
2022-09-23T00:46:39.211Z,10.11
2022-09-23T00:49:23.571Z,10.11
2022-09-23T00:51:58.082Z,10.11
2022-09-23T00:54:28.957Z,10.12
2022-09-23T00:56:59.803Z,10.13
2022-09-23T00:59:29.488Z,10.12
2022-09-23T01:01:59.455Z,10.08
2022-09-23T01:04:29.790Z,10.06
2022-09-23T01:07:00.148Z,10.06
2022-09-23T01:09:28.856Z,10.03
2022-09-23T01:12:26.445Z,10.03
2022-09-23T01:15:16.512Z,10.02
2022-09-23T01:17:47.926Z,10.02
2022-09-23T01:20:31.662Z,10.01
2022-09-23T01:23:31.698Z,9.99
2022-09-23T01:26:12.478Z,9.99
2022-09-23T01:28:57.530Z,9.98
2022-09-23T01:31:41.528Z,10.00
2022-09-23T01:34:20.057Z,10.00
2022-09-23T01:37:22.151Z,9.99
2022-09-23T01:40:15.386Z,9.98
2022-09-23T01:42:52.915Z,9.99
2022-09-23T01:45:36.889Z,9.99
2022-09-23T01:48:34.652Z,10.00
2022-09-23T01:51:15.584Z,10.00
2022-09-23T01:53:52.166Z,10.02
2022-09-23T01:56:25.525Z,10.02
2022-09-23T01:59:09.343Z,10.03
2022-09-23T02:01:45.071Z,10.04
2022-09-23T02:04:22.505Z,10.04
2022-09-23T02:07:17.105Z,10.02
2022-09-23T02:09:53.855Z,10.01
2022-09-23T02:12:28.636Z,9.99
2022-09-23T02:15:04.365Z,9.99
2022-09-23T02:17:45.489Z,9.99
2022-09-23T02:20:22.844Z,9.98
2022-09-23T02:22:54.999Z,9.98
2022-09-23T02:25:35.169Z,9.98
2022-09-23T02:28:17.771Z,9.98
2022-09-23T02:30:55.923Z,9.99
2022-09-23T02:33:35.067Z,9.97
2022-09-23T02:36:14.107Z,9.95
2022-09-23T02:38:53.501Z,9.93
2022-09-23T02:41:37.246Z,9.93
2022-09-23T02:44:14.638Z,9.93
2022-09-23T02:46:43.750Z,9.91
2022-09-23T02:49:17.725Z,9.90
2022-09-23T02:51:46.706Z,9.89
2022-09-23T02:54:19.509Z,9.86
2022-09-23T02:56:50.399Z,9.84
2022-09-23T02:59:21.008Z,9.80
2022-09-23T03:02:08.422Z,9.76
2022-09-23T03:04:51.984Z,9.72
2022-09-23T03:07:47.776Z,9.70
2022-09-23T03:10:28.205Z,9.66
2022-09-23T03:13:30.445Z,9.60
2022-09-23T03:16:22.515Z,9.57
2022-09-23T03:18:58.865Z,9.54
2022-09-23T03:21:36.625Z,9.52
2022-09-23T03:24:09.158Z,9.49
2022-09-23T03:26:40.813Z,9.47
2022-09-23T03:29:11.803Z,9.46
2022-09-23T03:31:42.442Z,9.44
2022-09-23T03:34:25.175Z,9.41
2022-09-23T03:37:03.512Z,9.38
2022-09-23T03:39:41.183Z,9.35
2022-09-23T03:42:19.054Z,9.33
2022-09-23T03:44:48.900Z,9.32
2022-09-23T03:47:17.604Z,9.31
2022-09-23T03:49:48.735Z,9.30
2022-09-23T03:52:18.807Z,9.28
2022-09-23T03:54:47.492Z,9.28
2022-09-23T03:57:15.822Z,9.26
2022-09-23T03:59:44.222Z,9.24
2022-09-23T04:02:12.586Z,9.22
2022-09-23T04:04:41.459Z,9.20
2022-09-23T04:07:11.144Z,9.17
2022-09-23T04:09:39.832Z,9.16
2022-09-23T04:12:12.206Z,9.15
2022-09-23T04:14:40.973Z,9.12
2022-09-23T04:17:09.716Z,9.11
2022-09-23T04:19:38.186Z,9.10
2022-09-23T04:22:09.645Z,9.08
2022-09-23T04:24:38.121Z,9.08
2022-09-23T04:27:06.718Z,9.05
2022-09-23T04:29:35.073Z,9.05
2022-09-23T04:32:03.476Z,9.02
2022-09-23T04:34:31.854Z,8.98
2022-09-23T04:37:00.139Z,8.96
2022-09-23T04:39:28.476Z,8.94
2022-09-23T04:41:56.784Z,8.92
2022-09-23T04:44:27.034Z,8.90
2022-09-23T04:46:55.390Z,8.88
2022-09-23T04:49:23.874Z,8.89
2022-09-23T04:51:52.284Z,8.87
2022-09-23T04:54:20.625Z,8.87
2022-09-23T04:56:48.946Z,8.85
2022-09-23T04:59:17.251Z,8.83
2022-09-23T05:01:45.700Z,8.82
2022-09-23T05:04:14.387Z,8.80
2022-09-23T05:06:45.281Z,8.78
2022-09-23T05:09:18.607Z,8.77
2022-09-23T05:11:47.531Z,8.77
2022-09-23T05:14:15.982Z,8.76
2022-09-23T05:16:44.355Z,8.76
2022-09-23T05:19:13.561Z,8.75
2022-09-23T05:21:42.178Z,8.74
2022-09-23T05:24:12.948Z,8.75
2022-09-23T05:26:41.735Z,8.75
2022-09-23T05:29:10.350Z,8.75
2022-09-23T05:31:38.932Z,8.75
2022-09-23T05:34:07.462Z,8.77
2022-09-23T05:36:39.060Z,8.78
2022-09-23T05:39:09.386Z,8.81
2022-09-23T05:41:38.811Z,8.82
2022-09-23T05:44:07.573Z,8.83
2022-09-23T05:46:37.115Z,8.85
2022-09-23T05:49:06.267Z,8.87
2022-09-23T05:51:36.015Z,8.88
2022-09-23T05:54:05.868Z,8.89
2022-09-23T05:56:35.752Z,8.92
2022-09-23T05:59:05.194Z,8.93
2022-09-23T06:01:36.533Z,8.97
2022-09-23T06:04:07.652Z,9.00
2022-09-23T06:06:39.978Z,9.04
2022-09-23T06:09:13.404Z,9.10
2022-09-23T06:11:42.137Z,9.13
2022-09-23T06:14:13.833Z,9.20
2022-09-23T06:16:43.501Z,9.23
2022-09-23T06:19:11.998Z,9.29
2022-09-23T06:21:40.798Z,9.33
2022-09-23T06:24:09.906Z,9.40
2022-09-23T06:26:39.001Z,9.47
2022-09-23T06:29:11.879Z,9.52
2022-09-23T06:31:41.719Z,9.57
2022-09-23T06:34:14.936Z,9.63
2022-09-23T06:36:45.769Z,9.68
2022-09-23T06:39:15.530Z,9.73
2022-09-23T06:41:45.229Z,9.80
2022-09-23T06:44:15.086Z,9.84
2022-09-23T06:46:44.357Z,9.87
2022-09-23T06:49:13.531Z,9.94
2022-09-23T06:51:42.174Z,9.98
2022-09-23T06:54:11.626Z,10.02
2022-09-23T06:56:40.303Z,10.09
2022-09-23T06:59:11.325Z,10.12
2022-09-23T07:01:39.817Z,10.13
2022-09-23T07:04:10.830Z,10.21
2022-09-23T07:06:39.542Z,10.31
2022-09-23T07:09:09.048Z,10.46
2022-09-23T07:11:38.033Z,10.60
2022-09-23T07:14:06.409Z,10.80
2022-09-23T07:16:34.834Z,10.99
2022-09-23T07:19:03.187Z,11.19
2022-09-23T07:21:32.064Z,11.45
2022-09-23T07:24:00.705Z,11.66
2022-09-23T07:26:29.650Z,11.87
2022-09-23T07:29:04.801Z,12.16
2022-09-23T07:31:39.489Z,12.43
2022-09-23T07:34:12.668Z,12.56
2022-09-23T07:36:41.500Z,12.60
2022-09-23T07:39:11.928Z,12.63
2022-09-23T07:41:44.818Z,12.66
2022-09-23T07:44:24.126Z,12.70
2022-09-23T07:46:54.396Z,12.65
2022-09-23T07:49:22.807Z,12.62
2022-09-23T07:51:51.452Z,12.58
2022-09-23T07:54:21.707Z,12.53
2022-09-23T07:56:50.272Z,12.52
2022-09-23T07:59:21.565Z,12.50
2022-09-23T08:01:52.848Z,12.48
2022-09-23T08:04:28.300Z,12.43
2022-09-23T08:07:00.731Z,12.42
2022-09-23T08:09:35.085Z,12.41
2022-09-23T08:12:03.742Z,12.42
2022-09-23T08:14:32.787Z,12.47
2022-09-23T08:17:01.177Z,12.54
2022-09-23T08:19:29.566Z,12.65
2022-09-23T08:21:58.107Z,12.74
2022-09-23T08:24:30.517Z,12.80
2022-09-23T08:26:59.495Z,12.84
2022-09-23T08:29:28.060Z,12.88
2022-09-23T08:31:56.742Z,12.90
2022-09-23T08:34:27.809Z,12.93
2022-09-23T08:36:56.874Z,12.97
2022-09-23T08:39:25.286Z,13.05
2022-09-23T08:41:59.114Z,13.18
2022-09-23T08:44:30.853Z,13.35
2022-09-23T08:47:15.000Z,13.50
2022-09-23T08:49:59.233Z,13.63
2022-09-23T08:52:39.708Z,13.72
2022-09-23T08:55:14.058Z,13.79
2022-09-23T08:58:02.314Z,13.83
2022-09-23T09:00:47.593Z,13.90
2022-09-23T09:03:23.326Z,13.98
2022-09-23T09:05:54.581Z,14.07
2022-09-23T09:08:29.781Z,14.11
2022-09-23T09:10:58.585Z,14.19
2022-09-23T09:13:48.957Z,14.28
2022-09-23T09:16:59.899Z,14.36
2022-09-23T09:19:55.436Z,14.46
2022-09-23T09:23:04.671Z,14.54
2022-09-23T09:25:57.183Z,14.56
2022-09-23T09:28:34.058Z,14.59
2022-09-23T09:31:29.362Z,14.61
2022-09-23T09:34:12.013Z,14.61
2022-09-23T09:36:50.076Z,14.60
2022-09-23T09:39:21.817Z,14.59
2022-09-23T09:41:55.524Z,14.58
2022-09-23T09:44:39.498Z,14.55
2022-09-23T09:47:27.364Z,14.54
2022-09-23T09:50:00.775Z,14.55
2022-09-23T09:52:30.338Z,14.55
2022-09-23T09:55:13.886Z,14.59
2022-09-23T09:57:52.287Z,14.60
2022-09-23T10:00:27.693Z,14.61
2022-09-23T10:03:09.191Z,14.61
2022-09-23T10:05:48.166Z,14.66
2022-09-23T10:08:33.511Z,14.70
2022-09-23T10:11:17.231Z,14.74
2022-09-23T10:14:13.216Z,14.75
2022-09-23T10:16:42.799Z,14.77
2022-09-23T10:19:26.197Z,14.79
2022-09-23T10:22:02.996Z,14.83
2022-09-23T10:24:36.850Z,14.85
2022-09-23T10:27:11.944Z,14.89
2022-09-23T10:29:51.353Z,14.91
2022-09-23T10:32:30.620Z,14.92
2022-09-23T10:35:23.789Z,14.96
2022-09-23T10:37:54.388Z,14.97
2022-09-23T10:40:51.670Z,14.99
2022-09-23T10:44:17.667Z,15.06
2022-09-23T10:47:23.038Z,15.09
2022-09-23T10:50:09.908Z,15.14
2022-09-23T10:53:05.000Z,15.23
2022-09-23T10:55:41.671Z,15.27
2022-09-23T10:58:39.714Z,15.32
2022-09-23T11:01:28.370Z,15.35
2022-09-23T11:04:19.708Z,15.43
2022-09-23T11:07:02.687Z,15.51
2022-09-23T11:09:40.585Z,15.58
2022-09-23T11:12:27.575Z,15.60
2022-09-23T11:15:26.203Z,15.66
2022-09-23T11:18:29.233Z,15.69
2022-09-23T11:21:57.136Z,15.73
2022-09-23T11:25:10.339Z,15.75
2022-09-23T11:27:59.264Z,15.77
2022-09-23T11:30:46.766Z,15.77
2022-09-23T11:33:37.802Z,15.80
2022-09-23T11:36:10.759Z,15.82
2022-09-23T11:38:52.229Z,15.84
2022-09-23T11:41:30.810Z,15.87
2022-09-23T11:44:11.802Z,15.89
2022-09-23T11:47:09.052Z,15.93
2022-09-23T11:49:49.863Z,15.98
2022-09-23T11:52:39.222Z,15.98
2022-09-23T11:55:25.763Z,16.01
2022-09-23T11:57:59.937Z,16.01
2022-09-23T12:00:34.495Z,16.04
2022-09-23T12:03:43.267Z,16.06
2022-09-23T12:06:18.707Z,16.06
2022-09-23T12:08:54.341Z,16.12
2022-09-23T12:11:55.243Z,16.17
2022-09-23T12:14:34.814Z,16.21
2022-09-23T12:17:22.669Z,16.25
2022-09-23T12:20:00.298Z,16.27
2022-09-23T12:23:00.308Z,16.31
2022-09-23T12:25:46.020Z,16.33
2022-09-23T12:28:51.469Z,16.36
2022-09-23T12:31:30.729Z,16.38
2022-09-23T12:34:02.114Z,16.41
2022-09-23T12:36:36.676Z,16.44
2022-09-23T12:39:24.878Z,16.44
2022-09-23T12:42:19.798Z,16.45
2022-09-23T12:44:49.070Z,16.45
2022-09-23T12:47:28.145Z,16.47
2022-09-23T12:49:57.398Z,16.50
2022-09-23T12:52:32.030Z,16.55
2022-09-23T12:55:35.898Z,16.57
2022-09-23T12:58:57.172Z,16.62
2022-09-23T13:01:27.039Z,16.62
2022-09-23T13:04:17.208Z,16.61
2022-09-23T13:07:06.375Z,16.62
2022-09-23T13:09:42.451Z,16.62
2022-09-23T13:12:32.458Z,16.60
2022-09-23T13:15:06.297Z,16.57
2022-09-23T13:17:37.843Z,16.60
2022-09-23T13:20:33.450Z,16.61
2022-09-23T13:23:25.083Z,16.60
2022-09-23T13:25:57.212Z,16.61
2022-09-23T13:28:34.724Z,16.61
2022-09-23T13:31:13.774Z,16.60
2022-09-23T13:33:59.721Z,16.62
2022-09-23T13:36:28.123Z,16.62
2022-09-23T13:39:16.093Z,16.61
2022-09-23T13:41:45.735Z,16.60
2022-09-23T13:44:21.870Z,16.59
2022-09-23T13:46:58.169Z,16.58
2022-09-23T13:49:36.326Z,16.55
2022-09-23T13:52:06.244Z,16.55
2022-09-23T13:54:47.320Z,16.52
2022-09-23T13:57:32.141Z,16.46
2022-09-23T14:00:02.005Z,16.43
2022-09-23T14:02:47.112Z,16.40
2022-09-23T14:05:24.644Z,16.37
2022-09-23T14:07:55.266Z,16.32
2022-09-23T14:10:24.765Z,16.25
2022-09-23T14:12:55.080Z,16.20
2022-09-23T14:15:23.825Z,16.14
2022-09-23T14:18:06.347Z,16.10
2022-09-23T14:20:46.585Z,16.05
2022-09-23T14:23:15.152Z,16.00
2022-09-23T14:25:44.939Z,15.96
2022-09-23T14:28:19.766Z,15.91
2022-09-23T14:30:50.858Z,15.90
2022-09-23T14:33:28.210Z,15.89
2022-09-23T14:36:36.257Z,15.85
2022-09-23T14:39:10.069Z,15.81
2022-09-23T14:41:41.654Z,15.81
2022-09-23T14:44:36.704Z,15.76
2022-09-23T14:47:11.582Z,15.70
2022-09-23T14:50:07.623Z,15.62
2022-09-23T14:52:36.092Z,15.54
2022-09-23T14:55:15.421Z,15.48
2022-09-23T14:57:45.275Z,15.43
2022-09-23T15:00:19.225Z,15.37
2022-09-23T15:03:14.992Z,15.31
2022-09-23T15:05:46.929Z,15.24
2022-09-23T15:08:23.597Z,15.15
2022-09-23T15:10:52.354Z,15.09
2022-09-23T15:13:29.068Z,15.03
2022-09-23T15:16:00.369Z,14.99
2022-09-23T15:18:37.732Z,14.95
2022-09-23T15:21:12.055Z,14.92
2022-09-23T15:23:48.464Z,14.89
2022-09-23T15:26:22.938Z,14.86
2022-09-23T15:28:54.634Z,14.82
2022-09-23T15:31:26.627Z,14.80
2022-09-23T15:33:56.119Z,14.77
2022-09-23T15:36:30.677Z,14.72
2022-09-23T15:39:06.700Z,14.67
2022-09-23T15:41:35.021Z,14.63
2022-09-23T15:44:14.458Z,14.63
2022-09-23T15:46:48.028Z,14.62
2022-09-23T15:49:36.358Z,14.61
2022-09-23T15:52:09.744Z,14.59
2022-09-23T15:54:38.231Z,14.57
2022-09-23T15:57:06.607Z,14.54
2022-09-23T15:59:35.184Z,14.50
2022-09-23T16:02:08.050Z,14.48
2022-09-23T16:04:37.123Z,14.45
2022-09-23T16:07:05.662Z,14.45
2022-09-23T16:09:34.289Z,14.44
2022-09-23T16:12:03.330Z,14.44
2022-09-23T16:14:31.800Z,14.43
2022-09-23T16:17:03.479Z,14.45
2022-09-23T16:19:34.468Z,14.45
2022-09-23T16:22:04.343Z,14.42
2022-09-23T16:24:32.899Z,14.40
2022-09-23T16:27:07.857Z,14.38
2022-09-23T16:29:37.109Z,14.33
2022-09-23T16:32:05.749Z,14.29
2022-09-23T16:34:37.776Z,14.25
2022-09-23T16:37:06.833Z,14.23
2022-09-23T16:39:35.165Z,14.20
2022-09-23T16:42:04.983Z,14.17
2022-09-23T16:44:33.659Z,14.15
2022-09-23T16:47:02.066Z,14.12
2022-09-23T16:49:30.425Z,14.09
2022-09-23T16:52:01.132Z,14.06
2022-09-23T16:54:30.041Z,14.02
2022-09-23T16:56:59.139Z,13.99
2022-09-23T16:59:47.395Z,13.96
2022-09-23T17:02:34.454Z,13.93
2022-09-23T17:05:02.889Z,13.92
2022-09-23T17:07:40.644Z,13.90
2022-09-23T17:10:09.440Z,13.90
2022-09-23T17:12:38.259Z,13.88
2022-09-23T17:15:07.797Z,13.87
2022-09-23T17:17:37.923Z,13.86
2022-09-23T17:20:06.974Z,13.83
2022-09-23T17:22:35.345Z,13.79
2022-09-23T17:25:04.018Z,13.78
2022-09-23T17:27:32.436Z,13.76
2022-09-23T17:30:00.794Z,13.75
2022-09-23T17:32:32.245Z,13.73
2022-09-23T17:35:04.555Z,13.70
2022-09-23T17:37:33.223Z,13.67
2022-09-23T17:40:01.829Z,13.64
2022-09-23T17:42:30.543Z,13.63
2022-09-23T17:45:00.165Z,13.61
2022-09-23T17:47:28.788Z,13.60
2022-09-23T17:49:58.065Z,13.59
2022-09-23T17:52:26.619Z,13.58
2022-09-23T17:54:55.339Z,13.57
2022-09-23T17:57:23.718Z,13.56
2022-09-23T17:59:53.876Z,13.54
2022-09-23T18:02:23.097Z,13.53
2022-09-23T18:04:58.526Z,13.54
2022-09-23T18:07:26.886Z,13.52
2022-09-23T18:09:58.170Z,13.52
2022-09-23T18:12:27.187Z,13.51
2022-09-23T18:14:55.496Z,13.50
2022-09-23T18:17:23.756Z,13.50
2022-09-23T18:19:55.019Z,13.50
2022-09-23T18:22:23.544Z,13.50
2022-09-23T18:24:52.855Z,13.50
2022-09-23T18:27:21.314Z,13.48
2022-09-23T18:29:49.560Z,13.47
2022-09-23T18:32:18.657Z,13.47
2022-09-23T18:34:47.316Z,13.44
2022-09-23T18:37:18.032Z,13.44
2022-09-23T18:39:46.410Z,13.42
2022-09-23T18:42:14.945Z,13.41
2022-09-23T18:44:43.382Z,13.40
2022-09-23T18:47:31.996Z,13.39
2022-09-23T18:50:18.916Z,13.40
2022-09-23T18:52:49.878Z,13.38
2022-09-23T18:55:18.752Z,13.37
2022-09-23T18:57:47.853Z,13.36
2022-09-23T19:00:16.377Z,13.33
2022-09-23T19:02:45.609Z,13.32
2022-09-23T19:05:15.804Z,13.30
2022-09-23T19:07:44.907Z,13.31
2022-09-23T19:10:13.615Z,13.30
2022-09-23T19:12:42.065Z,13.29
2022-09-23T19:15:11.742Z,13.27
2022-09-23T19:17:40.825Z,13.25
2022-09-23T19:20:10.652Z,13.24
2022-09-23T19:22:39.982Z,13.22
2022-09-23T19:25:08.912Z,13.21
2022-09-23T19:27:39.323Z,13.20
2022-09-23T19:30:08.468Z,13.17
2022-09-23T19:32:36.810Z,13.15
2022-09-23T19:35:05.665Z,13.14
2022-09-23T19:37:33.971Z,13.13
2022-09-23T19:40:02.304Z,13.14
2022-09-23T19:42:31.664Z,13.12
2022-09-23T19:45:00.116Z,13.12
2022-09-23T19:47:28.609Z,13.12
2022-09-23T19:49:57.140Z,13.11
2022-09-23T19:52:25.696Z,13.10
2022-09-23T19:54:54.004Z,13.09
2022-09-23T19:57:22.434Z,13.06
2022-09-23T19:59:50.860Z,13.05
2022-09-23T20:02:19.209Z,13.03
2022-09-23T20:04:47.612Z,13.04
2022-09-23T20:07:16.261Z,13.01
2022-09-23T20:09:45.161Z,13.01
2022-09-23T20:12:14.466Z,13.01
2022-09-23T20:14:43.440Z,12.99
2022-09-23T20:17:14.623Z,12.99
2022-09-23T20:19:44.741Z,12.99
2022-09-23T20:22:27.522Z,12.99
2022-09-23T20:24:59.844Z,12.99
2022-09-23T20:27:31.377Z,12.98
2022-09-23T20:30:00.575Z,12.97
2022-09-23T20:32:29.314Z,12.97
2022-09-23T20:34:57.694Z,12.96
2022-09-23T20:37:26.143Z,12.97
2022-09-23T20:39:54.577Z,12.97
2022-09-23T20:42:23.045Z,12.97
2022-09-23T20:44:51.425Z,12.97
2022-09-23T20:47:23.274Z,12.97
2022-09-23T20:49:53.432Z,12.98
2022-09-23T20:52:22.186Z,12.99
2022-09-23T20:54:51.683Z,12.99
2022-09-23T20:57:20.318Z,12.98
2022-09-23T20:59:49.596Z,13.00
2022-09-23T21:02:18.113Z,12.98
2022-09-23T21:04:46.546Z,12.98
2022-09-23T21:07:15.070Z,12.99
2022-09-23T21:09:44.692Z,13.00
2022-09-23T21:12:13.087Z,13.00
2022-09-23T21:14:41.432Z,13.01
2022-09-23T21:17:10.090Z,13.01
2022-09-23T21:19:38.441Z,13.01
2022-09-23T21:22:06.803Z,13.03
2022-09-23T21:25:12.112Z,13.02
2022-09-23T21:27:23.542Z,13.04
2022-09-23T21:29:51.942Z,13.05
2022-09-23T21:32:21.374Z,13.04
2022-09-23T21:34:50.346Z,13.05
2022-09-23T21:37:18.769Z,13.04
2022-09-23T21:40:07.342Z,13.03
2022-09-23T21:42:35.721Z,13.04
2022-09-23T21:45:05.223Z,13.04
2022-09-23T21:47:34.021Z,13.02
2022-09-23T21:50:02.873Z,13.02
2022-09-23T21:52:34.931Z,13.02
2022-09-23T21:55:03.427Z,12.99
2022-09-23T21:57:31.996Z,12.98
2022-09-23T22:00:00.560Z,12.97
2022-09-23T22:02:28.990Z,12.95
2022-09-23T22:04:57.276Z,12.96
2022-09-23T22:07:25.527Z,12.93
2022-09-23T22:09:53.993Z,12.94
2022-09-23T22:12:22.266Z,12.93
2022-09-23T22:14:51.699Z,12.93
2022-09-23T22:17:21.192Z,12.93
2022-09-23T22:19:51.189Z,12.93
2022-09-23T22:22:19.685Z,12.92
2022-09-23T22:24:48.744Z,12.91
2022-09-23T22:27:19.225Z,12.92
2022-09-23T22:30:06.600Z,12.94
2022-09-23T22:32:41.139Z,12.94
2022-09-23T22:35:11.884Z,12.95
2022-09-23T22:37:40.334Z,12.96
2022-09-23T22:40:12.692Z,12.96
2022-09-23T22:42:42.511Z,12.96
2022-09-23T22:45:13.692Z,12.96
2022-09-23T22:47:45.766Z,12.96
2022-09-23T22:50:15.345Z,12.94
2022-09-23T22:52:43.860Z,12.95
2022-09-23T22:55:12.644Z,12.94
2022-09-23T22:57:41.070Z,12.93
2022-09-23T23:00:11.543Z,12.93
2022-09-23T23:02:40.243Z,12.92
2022-09-23T23:05:08.909Z,12.92
2022-09-23T23:07:37.435Z,12.92
2022-09-23T23:10:10.164Z,12.92
2022-09-23T23:12:39.551Z,12.91
2022-09-23T23:15:10.627Z,12.90
2022-09-23T23:17:40.480Z,12.91
2022-09-23T23:20:09.174Z,12.91
2022-09-23T23:22:37.591Z,12.91
2022-09-23T23:25:07.886Z,12.91
2022-09-23T23:27:39.597Z,12.90
2022-09-23T23:30:08.378Z,12.91
2022-09-23T23:32:36.668Z,12.90
2022-09-23T23:35:05.661Z,12.90
2022-09-23T23:37:34.056Z,12.90
2022-09-23T23:40:03.766Z,12.89
2022-09-23T23:42:32.143Z,12.88
2022-09-23T23:45:00.566Z,12.88
2022-09-23T23:47:31.076Z,12.87
2022-09-23T23:49:59.760Z,12.87
2022-09-23T23:52:28.290Z,12.86
2022-09-23T23:54:56.679Z,12.86
2022-09-23T23:57:25.029Z,12.84
2022-09-23T23:59:53.368Z,12.84
